Flight Track Log - Related Links

Times and Time Zones

All times are in EDT time to prevent confusion due to time zone crossing. See the N833NN flight status page for this flight to view local times or setup timezone preferences in your user account.

Time Position Orientation Groundspeed Altitude Reporting Facility
EDT Latitude Longitude Course Direction KTS MPH feet Rate Location/Type
Sun 09:10:32 AM 25.8566 -80.3101 137° Southeast  Level FlightAware Approximate
Sun 09:11:20 AM 25.8008 -80.2514 354° North 175 201 1,800  Level Miami Center
Sun 09:16:13 AM 26.0425 -80.2792 324° Northwest 291 335 10,100 1,666 Climbing Miami Center
Sun 09:17:13 AM 26.1183 -80.3414 325° Northwest 310 357 11,600 2,150 Climbing Miami Center
Sun 09:18:13 AM 26.2044 -80.4089 334° Northwest 349 402 14,400 2,550 Climbing Miami Center
Sun 09:19:13 AM 26.3114 -80.4675 336° Northwest 379 436 16,700 2,150 Climbing Miami Center
Sun 09:20:13 AM 26.4106 -80.5169 337° Northwest 410 472 18,700 1,900 Climbing Miami Center
Sun 09:21:13 AM 26.5322 -80.5742 337° Northwest 428 493 20,500 2,050 Climbing Miami Center
Sun 09:22:13 AM 26.6356 -80.6239 337° Northwest 443 510 22,800 1,850 Climbing Miami Center
Sun 09:23:13 AM 26.7592 -80.6814 340° North 443 510 24,200 1,350 Climbing Miami Center
Sun 09:24:13 AM 26.8831 -80.7319 343° North 454 522 25,500 1,550 Climbing Miami Center
Sun 09:25:13 AM 27.0072 -80.7758 342° North 459 528 27,300 1,950 Climbing Miami Center
Sun 09:26:13 AM 27.1294 -80.8194 342° North 459 528 29,400 1,750 Climbing Miami Center
Sun 09:27:13 AM 27.2472 -80.8633 349° North 459 528 30,800 1,500 Climbing Miami Center
Sun 09:28:13 AM 27.3694 -80.8908 351° North 449 517 32,400 1,550 Climbing Miami Center
Sun 09:29:13 AM 27.4922 -80.9117 349° North 449 517 33,900 1,200 Climbing Miami Center
Sun 09:30:13 AM 27.6144 -80.9394 351° North 449 517 34,800 550 Climbing Miami Center
Sun 09:31:13 AM 27.7392 -80.9625 349° North 449 517 35,000 100 Climbing Miami Center
Sun 09:32:13 AM 27.8572 -80.9878 349° North 444 511 35,000 -50 Level Miami Center
Sun 09:33:13 AM 27.9775 -81.0136 350° North 444 511 34,900  Descending Miami Center
Sun 09:34:13 AM 28.1000 -81.0392 350° North 444 511 35,000  Climbing Miami Center
Sun 09:35:13 AM 28.2225 -81.0625 350° North 444 511 34,900  Descending Miami Center
Sun 09:36:13 AM 28.3406 -81.0858 349° North 444 511 35,000 50 Climbing Miami Center
Sun 09:37:13 AM 28.4631 -81.1139 349° North 444 511 35,000  Level Miami Center
Sun 09:38:13 AM 28.5831 -81.1400 350° North 444 511 35,000  Level Miami Center
Sun 09:38:48 AM 28.6536 -81.1536 349° North 468 539 35,000  Level Jacksonville Center
Sun 09:39:47 AM 28.7667 -81.1778 350° North 463 533 35,000 -50 Level Jacksonville Center
Sun 09:40:48 AM 28.8922 -81.2042 350° North 458 527 34,900  Descending Jacksonville Center
Sun 09:41:47 AM 29.0136 -81.2281 349° North 452 520 35,000  Climbing Jacksonville Center
Sun 09:42:47 AM 29.1369 -81.2547 348° North 452 520 34,900  Descending Jacksonville Center
Sun 09:43:48 AM 29.2564 -81.2836 350° North 446 513 35,000 50 Climbing Jacksonville Center
Sun 09:44:47 AM 29.3778 -81.3078 350° North 446 513 35,000  Level Jacksonville Center
Sun 09:45:47 AM 29.4969 -81.3322 349° North 446 513 35,000  Level Jacksonville Center
Sun 09:46:47 AM 29.6183 -81.3589 349° North 446 513 35,000  Level Jacksonville Center
Sun 09:47:47 AM 29.7419 -81.3856 349° North 446 513 35,000  Level Jacksonville Center
Sun 09:48:47 AM 29.8633 -81.4125 350° North 446 513 35,000  Level Jacksonville Center
Sun 09:49:47 AM 29.9847 -81.4369 349° North 446 513 35,000  Level Jacksonville Center
Sun 09:50:47 AM 30.1103 -81.4639 351° North 446 513 35,000  Level Jacksonville Center
Sun 09:51:47 AM 30.2317 -81.4861 352° North 451 519 35,000  Level Jacksonville Center
Sun 09:52:48 AM 30.3572 -81.5058 North 451 519 35,000  Level Jacksonville Center
Sun 09:53:47 AM 30.4803 -81.4969 North 445 512 35,000  Level Jacksonville Center
Sun 09:54:47 AM 30.6075 -81.4878 North 440 506 35,000  Level Jacksonville Center
Sun 09:55:48 AM 30.7325 -81.4764 North 440 506 35,000  Level Jacksonville Center
Sun 09:56:47 AM 30.8578 -81.4672 North 440 506 35,000  Level Jacksonville Center
Sun 09:57:47 AM 30.9831 -81.4581 North 440 506 35,000  Level Jacksonville Center
Sun 09:58:47 AM 31.1081 -81.4464 North 440 506 35,000  Level Jacksonville Center
Sun 09:59:48 AM 31.2311 -81.4372 11° North 440 506 35,000  Level Jacksonville Center
Sun 10:00:47 AM 31.3500 -81.4111 12° North 440 506 35,000  Level Jacksonville Center
Sun 10:01:48 AM 31.4811 -81.3772 18° North 440 506 35,000  Level Jacksonville Center
Sun 10:02:48 AM 31.5975 -81.3317 40° Northeast 434 499 35,000  Level Jacksonville Center
Sun 10:03:47 AM 31.6819 -81.2469 41° Northeast 429 494 35,000  Level Jacksonville Center
Sun 10:04:47 AM 31.7808 -81.1475 39° Northeast 429 494 35,000  Level Jacksonville Center
Sun 10:05:48 AM 31.8633 -81.0678 40° Northeast 429 494 35,000  Level Jacksonville Center
Sun 10:06:48 AM 31.9661 -80.9653 40° Northeast 429 494 35,000  Level Jacksonville Center
Sun 10:07:48 AM 32.0628 -80.8703 39° Northeast 443 510 35,000  Level Jacksonville Center
Sun 10:08:48 AM 32.1633 -80.7747 42° Northeast 453 521 35,000 -50 Level Jacksonville Center
Sun 10:09:48 AM 32.2475 -80.6844 39° Northeast 453 521 34,900  Descending Jacksonville Center
Sun 10:10:48 AM 32.3419 -80.5936 41° Northeast 448 516 35,000 50 Climbing Jacksonville Center
Sun 10:11:48 AM 32.4342 -80.5000 41° Northeast 443 510 35,000 -50 Level Jacksonville Center
Sun 10:12:48 AM 32.5264 -80.4064 40° Northeast 443 510 34,900  Descending Jacksonville Center
Sun 10:13:48 AM 32.6183 -80.3153 40° Northeast 438 504 35,000 50 Climbing Jacksonville Center
Sun 10:14:48 AM 32.7125 -80.2211 41° Northeast 438 504 35,000  Level Jacksonville Center
Sun 10:15:48 AM 32.8044 -80.1269 40° Northeast 438 504 35,000  Level Jacksonville Center
Sun 10:16:48 AM 32.8983 -80.0325 40° Northeast 438 504 35,000  Level Jacksonville Center
Sun 10:17:48 AM 33.0044 -79.9278 38° Northeast 445 512 35,000  Level Jacksonville Center
Sun 10:18:48 AM 33.1022 -79.8353 38° Northeast 445 512 35,000  Level Jacksonville Center
Sun 10:19:48 AM 33.1983 -79.7450 39° Northeast 445 512 35,000  Level Jacksonville Center
Sun 10:20:48 AM 33.2961 -79.6497 39° Northeast 445 512 35,000 -50 Level Jacksonville Center
Sun 10:21:48 AM 33.3917 -79.5567 40° Northeast 445 512 34,900 -50 Descending Jacksonville Center
Sun 10:22:48 AM 33.4872 -79.4608 40° Northeast 440 506 34,900  Level Jacksonville Center
Sun 10:23:48 AM 33.5806 -79.3675 39° Northeast 440 506 34,900 50 Level Jacksonville Center
Sun 10:24:48 AM 33.6761 -79.2739 37° Northeast 440 506 35,000 50 Climbing Jacksonville Center
Sun 10:25:48 AM 33.7694 -79.1900 41° Northeast 435 501 35,000  Level Jacksonville Center
Sun 10:26:48 AM 33.8444 -79.1119 38° Northeast 435 501 35,000  Level Jacksonville Center
Sun 10:27:47 AM 33.9500 -79.0122 40° Northeast 435 501 35,000 -37 Level Jacksonville Center
Sun 10:29:30 AM 34.1172 -78.8428 39° Northeast 434 499 34,900  Descending Washington Center
Sun 10:30:28 AM 34.2117 -78.7486 40° Northeast 434 499 35,000 51 Climbing Washington Center
Sun 10:31:28 AM 34.3036 -78.6567 40° Northeast 434 499 35,000  Level Washington Center
Sun 10:32:30 AM 34.4000 -78.5594 40° Northeast 434 499 35,000  Level Washington Center
Sun 10:33:28 AM 34.4942 -78.4647 40° Northeast 434 499 35,000  Level Washington Center
Sun 10:34:28 AM 34.5881 -78.3694 40° Northeast 434 499 35,000  Level Washington Center
Sun 10:35:29 AM 34.6822 -78.2742 40° Northeast 440 506 35,000  Level Washington Center
Sun 10:36:29 AM 34.7783 -78.1764 41° Northeast 440 506 35,000  Level Washington Center
Sun 10:37:30 AM 34.8722 -78.0756 42° Northeast 440 506 35,000  Level Washington Center
Sun 10:38:30 AM 34.9553 -77.9842 39° Northeast 440 506 35,000  Level Washington Center
Sun 10:39:28 AM 35.0533 -77.8856 40° Northeast 440 506 35,000  Level Washington Center
Sun 10:40:29 AM 35.1489 -77.7892 41° Northeast 435 501 35,000 -197 Level Washington Center
Sun 10:41:30 AM 35.2447 -77.6878 40° Northeast 447 514 34,600 -600 Descending Washington Center
Sun 10:42:29 AM 35.3425 -77.5883 37° Northeast 447 514 33,800 -756 Descending Washington Center
Sun 10:43:29 AM 35.4419 -77.4964 35° Northeast 447 514 33,100 -397 Descending Washington Center
Sun 10:44:30 AM 35.5456 -77.4069 36° Northeast 453 521 33,000 -50 Descending Washington Center
Sun 10:45:30 AM 35.6469 -77.3175 34° Northeast 453 521 33,000  Level Washington Center
Sun 10:46:30 AM 35.7547 -77.2275 35° Northeast 459 528 33,000  Level Washington Center
Sun 10:47:28 AM 35.8686 -77.1300 38° Northeast 454 522 33,000  Level Washington Center
Sun 10:48:28 AM 35.9636 -77.0369 35° Northeast 449 517 33,000 -150 Level Washington Center
Sun 10:49:28 AM 36.0692 -76.9461 35° Northeast 449 517 32,700 -541 Descending Washington Center
Sun 10:50:30 AM 36.1722 -76.8553 37° Northeast 454 522 31,900 -738 Descending Washington Center
Sun 10:51:30 AM 36.2756 -76.7592 35° Northeast 460 529 31,200 -712 Descending Washington Center
Sun 10:52:28 AM 36.3808 -76.6678 36° Northeast 460 529 30,500 -700 Descending Washington Center
Sun 10:53:30 AM 36.4858 -76.5736 36° Northeast 460 529 29,800 -689 Descending Washington Center
Sun 10:54:30 AM 36.5931 -76.4767 36° Northeast 460 529 29,100 -400 Descending Washington Center
Sun 10:55:30 AM 36.7000 -76.3794 37° Northeast 465 535 29,000 -51 Descending Washington Center
Sun 10:56:28 AM 36.7967 -76.2869 35° Northeast 470 541 29,000  Level Washington Center
Sun 10:57:28 AM 36.9036 -76.1919 21° North 475 547 29,000  Level Washington Center
Sun 10:58:29 AM 37.0311 -76.1306 24° Northeast 475 547 29,000  Level Washington Center
Sun 10:59:39 AM 37.1941 -76.0400 21° North 476 548 29,000 -50 Level FlightAware ADS-B
Sun 11:00:30 AM 37.2736 -76.0017 24° Northeast 475 547 28,900 -776 Descending Washington Center
Sun 11:02:29 AM 37.5374 -75.8542 30° Northeast 473 544 26,800 -1,026 Descending FlightAware ADS-B
Sun 11:03:02 AM 37.5985 -75.8094 31° Northeast 469 540 26,300 -857 Descending FlightAware ADS-B
Sun 11:03:32 AM 37.6545 -75.7676 31° Northeast 466 536 25,900 -923 Descending FlightAware ADS-B
Sun 11:04:07 AM 37.7187 -75.7194 31° Northeast 464 534 25,300 -818 Descending FlightAware ADS-B
Sun 11:04:38 AM 37.7754 -75.6769 31° Northeast 458 527 25,000 -295 Descending FlightAware ADS-B
Sun 11:05:08 AM 37.8312 -75.6347 31° Northeast 458 527 25,000  Level FlightAware ADS-B
Sun 11:05:40 AM 37.8881 -75.5917 31° Northeast 456 525 25,000  Level FlightAware ADS-B
Sun 11:06:10 AM 37.9433 -75.5499 31° Northeast 456 525 25,000  Level FlightAware ADS-B
Sun 11:06:45 AM 38.0058 -75.5025 28° Northeast 455 524 25,000 -304 Level FlightAware ADS-B
Sun 11:07:29 AM 38.0689 -75.4600 26° Northeast 449 517 24,600 -1,385 Descending Washington Center
Sun 11:08:29 AM 38.1814 -75.3911 28° Northeast 444 511 22,600 -1,983 Descending Washington Center
Sun 11:09:30 AM 38.2894 -75.3192 27° Northeast 434 499 20,600 -2,139 Descending Washington Center
Sun 11:11:51 AM 38.5464 -75.1539 27° Northeast 390 449 15,400 -1,989 Descending FlightAware ADS-B
Sun 11:12:25 AM 38.6013 -75.1185 26° Northeast 386 444 14,800 -512 Descending FlightAware ADS-B
Sun 11:13:13 AM 38.6768 -75.0704 26° Northeast 381 438 14,700 -83 Descending FlightAware ADS-B
Sun 11:13:37 AM 38.7009 -75.0551 27° Northeast 377 434 14,700  Level FlightAware ADS-B
Sun 11:14:07 AM 38.7600 -75.0172 27° Northeast 378 435 14,700  Level FlightAware ADS-B
Sun 11:14:37 AM 38.8083 -74.9860 27° Northeast 380 437 14,700  Level FlightAware ADS-B
Sun 11:15:08 AM 38.8562 -74.9550 25° Northeast 380 437 14,700  Level FlightAware ADS-B
Sun 11:15:26 AM 38.8861 -74.9368 19° North 379 436 14,700  Level FlightAware ADS-B
Sun 11:15:30 AM 38.8928 -74.9339 14° North 380 437 14,700 -800 Level FlightAware ADS-B
Sun 11:15:41 AM 38.9119 -74.9278 North 382 440 14,500 -1,250 Descending FlightAware ADS-B
Sun 11:15:54 AM 38.9332 -74.9250 360° North 384 442 14,200 -1,765 Descending FlightAware ADS-B
Sun 11:15:58 AM 38.9418 -74.9250 357° North 384 442 14,000 -1,371 Descending FlightAware ADS-B
Sun 11:16:29 AM 38.9970 -74.9292 357° North 389 448 13,400 -1,180 Descending FlightAware ADS-B
Sun 11:16:59 AM 39.0509 -74.9330 357° North 384 442 12,800 -1,180 Descending FlightAware ADS-B
Sun 11:17:30 AM 39.1042 -74.9368 357° North 371 427 12,200 -1,082 Descending FlightAware ADS-B
Sun 11:18:00 AM 39.1543 -74.9404 357° North 346 398 11,700 -984 Descending FlightAware ADS-B
Sun 11:18:31 AM 39.2009 -74.9437 357° North 328 377 11,200 -885 Descending FlightAware ADS-B
Sun 11:19:01 AM 39.2457 -74.9468 357° North 307 353 10,800 -885 Descending FlightAware ADS-B
Sun 11:19:32 AM 39.2879 -74.9497 357° North 299 344 10,300 -873 Descending FlightAware ADS-B
Sun 11:19:56 AM 39.3208 -74.9520 357° North 294 338 10,000 -750 Descending FlightAware ADS-B
Sun 11:20:12 AM 39.3427 -74.9535 357° North 290 334 9,800 -882 Descending FlightAware ADS-B
Sun 11:20:30 AM 39.3667 -74.9551 357° North 289 333 9,500 -857 Descending FlightAware ADS-B
Sun 11:21:08 AM 39.4171 -74.9587 357° North 286 329 9,000 -778 Descending FlightAware ADS-B
Sun 11:21:24 AM 39.4385 -74.9602 357° North 288 331 8,800 -909 Descending FlightAware ADS-B
Sun 11:21:41 AM 39.4615 -74.9617 357° North 285 328 8,500 -938 Descending FlightAware ADS-B
Sun 11:21:56 AM 39.4813 -74.9631 357° North 283 326 8,300 -800 Descending FlightAware ADS-B
Sun 11:22:11 AM 39.5012 -74.9645 356° North 284 327 8,100 -857 Descending FlightAware ADS-B
Sun 11:22:24 AM 39.5182 -74.9659 353° North 282 325 7,900 -667 Descending FlightAware ADS-B
Sun 11:22:29 AM 39.5243 -74.9669 346° North 281 323 7,900 -750 Level FlightAware ADS-B
Sun 11:22:32 AM 39.5287 -74.9683 340° North 282 325 7,800 -857 Descending FlightAware ADS-B
Sun 11:22:36 AM 39.5329 -74.9703 336° Northwest 284 327 7,800 -857 Level FlightAware ADS-B
Sun 11:22:39 AM 39.5367 -74.9725 329° Northwest 287 330 7,700 -857 Descending FlightAware ADS-B
Sun 11:22:43 AM 39.5417 -74.9764 324° Northwest 290 334 7,700  Level FlightAware ADS-B
Sun 11:22:47 AM 39.5454 -74.9799 319° Northwest 292 336 7,700  Level FlightAware ADS-B
Sun 11:22:50 AM 39.5493 -74.9843 312° West 293 337 7,700  Level FlightAware ADS-B
Sun 11:22:55 AM 39.5538 -74.9907 305° West 296 341 7,700  Level FlightAware ADS-B
Sun 11:23:00 AM 39.5576 -74.9977 300° West 297 342 7,700  Level FlightAware ADS-B
Sun 11:23:03 AM 39.5597 -75.0025 295° West 298 343 7,700  Level FlightAware ADS-B
Sun 11:23:18 AM 39.5686 -75.0270 295° West 299 344 7,700  Level FlightAware ADS-B
Sun 11:23:34 AM 39.5775 -75.0517 296° West 297 342 7,700  Level FlightAware ADS-B
Sun 11:23:50 AM 39.5873 -75.0782 295° West 299 344 7,700  Level FlightAware ADS-B
Sun 11:24:06 AM 39.5968 -75.1042 295° West 300 345 7,700 -188 Level FlightAware ADS-B
Sun 11:24:22 AM 39.6059 -75.1294 295° West 301 346 7,600 -529 Descending FlightAware ADS-B
Sun 11:24:40 AM 39.6171 -75.1599 295° West 301 346 7,400 -706 Descending FlightAware ADS-B
Sun 11:24:56 AM 39.6264 -75.1855 295° West 302 348 7,200 -750 Descending FlightAware ADS-B
Sun 11:25:12 AM 39.6359 -75.2118 295° West 301 346 7,000 -563 Descending FlightAware ADS-B
Sun 11:25:28 AM 39.6451 -75.2371 296° West 302 348 6,900 -581 Descending FlightAware ADS-B
Sun 11:25:43 AM 39.6544 -75.2622 295° West 301 346 6,700 -774 Descending FlightAware ADS-B
Sun 11:25:59 AM 39.6635 -75.2872 297° West 295 339 6,500 -818 Descending FlightAware ADS-B
Sun 11:26:05 AM 39.6677 -75.2978 303° West 291 335 6,400 -429 Descending FlightAware ADS-B
Sun 11:26:13 AM 39.6729 -75.3081 311° West 285 328 6,400 -462 Level FlightAware ADS-B
Sun 11:26:18 AM 39.6772 -75.3145 317° Northwest 279 321 6,300 -1,500 Descending FlightAware ADS-B
Sun 11:26:21 AM 39.6807 -75.3188 324° Northwest 275 316 6,200 -750 Descending FlightAware ADS-B
Sun 11:26:26 AM 39.6857 -75.3235 331° Northwest 270 311 6,200 -600 Level FlightAware ADS-B
Sun 11:26:31 AM 39.6907 -75.3271 336° Northwest 265 305 6,100 -667 Descending FlightAware ADS-B
Sun 11:26:35 AM 39.6952 -75.3297 339° North 259 298 6,100 -632 Level FlightAware ADS-B
Sun 11:26:50 AM 39.7114 -75.3377 340° North 243 280 5,900 -1,000 Descending FlightAware ADS-B
Sun 11:27:05 AM 39.7265 -75.3450 340° North 226 260 5,600 -1,355 Descending FlightAware ADS-B
Sun 11:27:21 AM 39.7412 -75.3521 340° North 215 247 5,200 -1,548 Descending FlightAware ADS-B
Sun 11:27:36 AM 39.7550 -75.3587 339° North 205 236 4,800 -1,935 Descending FlightAware ADS-B
Sun 11:27:52 AM 39.7695 -75.3659 339° North 207 238 4,200 -2,323 Descending FlightAware ADS-B
Sun 11:28:07 AM 39.7827 -75.3725 339° North 206 237 3,600 -2,129 Descending FlightAware ADS-B
Sun 11:28:23 AM 39.7963 -75.3792 340° North 201 231 3,100 -2,129 Descending FlightAware ADS-B
Sun 11:28:38 AM 39.8097 -75.3854 343° North 194 223 2,500 -2,348 Descending FlightAware ADS-B
Sun 11:28:46 AM 39.8158 -75.3878 352° North 190 219 2,200 -2,143 Descending FlightAware ADS-B
Sun 11:28:52 AM 39.8213 -75.3888 360° North 185 213 2,000 -2,000 Descending FlightAware ADS-B
Sun 11:28:55 AM 39.8239 -75.3888 10° North 183 211 1,900 -2,571 Descending FlightAware ADS-B
Sun 11:28:59 AM 39.8270 -75.3881 16° North 181 208 1,700 -2,571 Descending FlightAware ADS-B
Sun 11:29:02 AM 39.8294 -75.3872 31° Northeast 177 204 1,600 -1,500 Descending FlightAware ADS-B
Sun 11:29:07 AM 39.8329 -75.3845 45° Northeast 170 196 1,500 -600 Descending FlightAware ADS-B
Sun 11:29:12 AM 39.8353 -75.3814 55° Northeast 166 191 1,500 -667 Level FlightAware ADS-B
Sun 11:29:16 AM 39.8369 -75.3784 61° Northeast 159 183 1,400 -1,200 Descending FlightAware ADS-B
Sun 11:29:22 AM 39.8390 -75.3734 64° Northeast 155 178 1,300 -800 Descending FlightAware ADS-B
Sun 11:29:31 AM 39.8418 -75.3659 69° East 149 171 1,200 -462 Descending FlightAware ADS-B
Sun 11:29:35 AM 39.8427 -75.3629 69° East 148 170 1,200 -857 Level FlightAware ADS-B
Sun 11:29:38 AM 39.8435 -75.3602 73° East 148 170 1,100 -857 Descending FlightAware ADS-B
Sun 11:29:42 AM 39.8443 -75.3568 75° East 147 169 1,100 -706 Level FlightAware ADS-B
Sun 11:29:55 AM 39.8465 -75.3460 75° East 146 168 900 -857 Descending FlightAware ADS-B
Sun 11:30:10 AM 39.8491 -75.3333 75° East 145 167 700 -783 Descending FlightAware ADS-B
Sun 11:30:18 AM 39.8504 -75.3270 75° East 144 166 600 -750 Descending FlightAware ADS-B
Sun 11:30:26 AM 39.8519 -75.3196 75° East 142 163 500 -750 Descending FlightAware ADS-B
Sun 11:30:42 AM 39.8544 -75.3070 75° East 138 159 300 -750 Descending FlightAware ADS-B

Login

Don't have an account? Register now (free) for customized features, flight alerts, and more!